sensor_id;sensor_type;location;lat;lon;timestamp;pressure;altitude;pressure_sealevel;temperature;humidity
33913;BME280;20200;52.084;5.224;2023-03-03T00:00:55;151663.0;;;11.49;44.02
33913;BME280;20200;52.084;5.224;2023-03-03T00:02:31;151660.0;;;11.48;43.86
33913;BME280;20200;52.084;5.224;2023-03-03T00:05:43;151492.0;;;10.81;44.95
33913;BME280;20200;52.084;5.224;2023-03-03T00:07:20;151569.0;;;11.12;44.45
33913;BME280;20200;52.084;5.224;2023-03-03T00:08:56;151537.0;;;10.99;44.79
33913;BME280;20200;52.084;5.224;2023-03-03T00:12:20;151589.0;;;11.2;44.24
33913;BME280;20200;52.084;5.224;2023-03-03T00:13:57;151621.0;;;11.33;43.87
33913;BME280;20200;52.084;5.224;2023-03-03T00:15:34;151609.0;;;11.28;44.11
33913;BME280;20200;52.084;5.224;2023-03-03T00:17:14;151590.0;;;11.2;44.51
33913;BME280;20200;52.084;5.224;2023-03-03T00:20:35;151514.0;;;10.9;45.02
33913;BME280;20200;52.084;5.224;2023-03-03T00:22:16;151535.0;;;10.99;44.76
33913;BME280;20200;52.084;5.224;2023-03-03T00:24:16;151567.0;;;11.11;44.74
33913;BME280;20200;52.084;5.224;2023-03-03T00:25:54;151577.0;;;11.15;44.67
33913;BME280;20200;52.084;5.224;2023-03-03T00:27:34;151474.0;;;10.74;45.5
33913;BME280;20200;52.084;5.224;2023-03-03T00:31:14;151558.0;;;11.08;45.08
33913;BME280;20200;52.084;5.224;2023-03-03T00:32:52;151594.0;;;11.22;44.54
33913;BME280;20200;52.084;5.224;2023-03-03T00:34:28;151580.0;;;11.16;44.68
33913;BME280;20200;52.084;5.224;2023-03-03T00:36:21;151464.0;;;10.7;45.93
33913;BME280;20200;52.084;5.224;2023-03-03T00:38:13;151552.0;;;11.05;44.89
33913;BME280;20200;52.084;5.224;2023-03-03T00:41:29;151392.0;;;10.41;46.27
33913;BME280;20200;52.084;5.224;2023-03-03T00:43:16;151408.0;;;10.48;46.42
33913;BME280;20200;52.084;5.224;2023-03-03T00:44:55;151542.0;;;11.01;45.34
33913;BME280;20200;52.084;5.224;2023-03-03T00:46:35;151593.0;;;11.22;44.96
33913;BME280;20200;52.084;5.224;2023-03-03T00:50:20;151588.0;;;11.2;44.94
33913;BME280;20200;52.084;5.224;2023-03-03T00:52:00;151600.0;;;11.24;44.42
33913;BME280;20200;52.084;5.224;2023-03-03T00:53:36;151527.0;;;10.95;44.91
33913;BME280;20200;52.084;5.224;2023-03-03T00:55:12;151604.0;;;11.26;44.7
33913;BME280;20200;52.084;5.224;2023-03-03T00:56:48;151560.0;;;11.08;45.0
33913;BME280;20200;52.084;5.224;2023-03-03T01:00:02;151462.0;;;10.69;45.31
33913;BME280;20200;52.084;5.224;2023-03-03T01:01:40;151487.0;;;10.79;45.75
33913;BME280;20200;52.084;5.224;2023-03-03T01:03:17;151316.0;;;10.11;47.18
33913;BME280;20200;52.084;5.224;2023-03-03T01:06:31;151404.0;;;10.46;46.51
33913;BME280;20200;52.084;5.224;2023-03-03T01:08:07;151446.0;;;10.63;46.4
33913;BME280;20200;52.084;5.224;2023-03-03T01:09:44;151340.0;;;10.22;47.44
33913;BME280;20200;52.084;5.224;2023-03-03T01:13:01;151441.0;;;10.61;46.48
33913;BME280;20200;52.084;5.224;2023-03-03T01:14:38;151390.0;;;10.41;47.07
33913;BME280;20200;52.084;5.224;2023-03-03T01:16:15;151398.0;;;10.44;46.92
33913;BME280;20200;52.084;5.224;2023-03-03T01:17:53;151421.0;;;10.53;46.81
33913;BME280;20200;52.084;5.224;2023-03-03T01:21:05;151556.0;;;11.07;45.5
33913;BME280;20200;52.084;5.224;2023-03-03T01:22:42;151357.0;;;10.27;46.89
33913;BME280;20200;52.084;5.224;2023-03-03T01:24:18;151476.0;;;10.75;46.28
33913;BME280;20200;52.084;5.224;2023-03-03T01:27:33;151433.0;;;10.58;46.35
33913;BME280;20200;52.084;5.224;2023-03-03T01:29:10;151321.0;;;10.14;47.29
33913;BME280;20200;52.084;5.224;2023-03-03T01:30:46;151446.0;;;10.63;46.7
33913;BME280;20200;52.084;5.224;2023-03-03T01:32:22;151477.0;;;10.75;46.38
33913;BME280;20200;52.084;5.224;2023-03-03T01:35:36;151311.0;;;10.09;47.48
33913;BME280;20200;52.084;5.224;2023-03-03T01:37:11;151355.0;;;10.27;46.98
33913;BME280;20200;52.084;5.224;2023-03-03T01:38:48;151345.0;;;10.23;47.21
33913;BME280;20200;52.084;5.224;2023-03-03T01:42:05;151271.0;;;9.93;47.52
33913;BME280;20200;52.084;5.224;2023-03-03T01:43:43;151192.0;;;9.63;48.14
33913;BME280;20200;52.084;5.224;2023-03-03T01:45:22;151269.0;;;9.92;47.47
33913;BME280;20200;52.084;5.224;2023-03-03T01:48:43;151364.0;;;10.3;47.07
33913;BME280;20200;52.084;5.224;2023-03-03T01:50:29;151284.0;;;9.98;47.16
33913;BME280;20200;52.084;5.224;2023-03-03T01:52:12;151382.0;;;10.37;46.74
33913;BME280;20200;52.084;5.224;2023-03-03T01:53:52;151338.0;;;10.21;46.82
33913;BME280;20200;52.084;5.224;2023-03-03T01:55:34;151449.0;;;10.64;46.11
33913;BME280;20200;52.084;5.224;2023-03-03T01:58:59;151539.0;;;11.0;45.24
33913;BME280;20200;52.084;5.224;2023-03-03T02:00:38;151449.0;;;10.64;45.86
33913;BME280;20200;52.084;5.224;2023-03-03T02:02:15;151508.0;;;10.88;45.47
33913;BME280;20200;52.084;5.224;2023-03-03T02:03:52;151389.0;;;10.4;46.24
33913;BME280;20200;52.084;5.224;2023-03-03T02:07:06;151437.0;;;10.59;46.11
33913;BME280;20200;52.084;5.224;2023-03-03T02:08:48;151521.0;;;10.93;45.31
33913;BME280;20200;52.084;5.224;2023-03-03T02:10:29;151341.0;;;10.22;46.94
33913;BME280;20200;52.084;5.224;2023-03-03T02:13:47;151302.0;;;10.06;47.15
33913;BME280;20200;52.084;5.224;2023-03-03T02:15:25;151383.0;;;10.38;46.19
33913;BME280;20200;52.084;5.224;2023-03-03T02:17:02;151408.0;;;10.48;46.15
33913;BME280;20200;52.084;5.224;2023-03-03T02:18:38;151394.0;;;10.42;46.45
33913;BME280;20200;52.084;5.224;2023-03-03T02:22:01;151396.0;;;10.43;46.14
33913;BME280;20200;52.084;5.224;2023-03-03T02:23:42;151431.0;;;10.57;46.11
33913;BME280;20200;52.084;5.224;2023-03-03T02:25:27;151397.0;;;10.43;46.39
33913;BME280;20200;52.084;5.224;2023-03-03T02:27:09;151424.0;;;10.54;45.95
33913;BME280;20200;52.084;5.224;2023-03-03T02:30:24;151576.0;;;11.15;44.87
33913;BME280;20200;52.084;5.224;2023-03-03T02:32:00;151531.0;;;10.97;45.14
33913;BME280;20200;52.084;5.224;2023-03-03T02:33:37;151515.0;;;10.9;44.98
33913;BME280;20200;52.084;5.224;2023-03-03T02:35:32;151521.0;;;10.93;44.77
33913;BME280;20200;52.084;5.224;2023-03-03T02:38:49;151559.0;;;11.08;44.77
33913;BME280;20200;52.084;5.224;2023-03-03T02:40:33;151532.0;;;10.97;44.97
33913;BME280;20200;52.084;5.224;2023-03-03T02:42:15;151588.0;;;11.2;44.66
33913;BME280;20200;52.084;5.224;2023-03-03T02:43:58;151551.0;;;11.05;44.92
33913;BME280;20200;52.084;5.224;2023-03-03T02:45:41;151657.0;;;11.47;44.09
33913;BME280;20200;52.084;5.224;2023-03-03T02:48:54;151634.0;;;11.38;44.2
33913;BME280;20200;52.084;5.224;2023-03-03T02:50:30;151672.0;;;11.53;44.13
33913;BME280;20200;52.084;5.224;2023-03-03T02:52:07;151618.0;;;11.32;44.62
33913;BME280;20200;52.084;5.224;2023-03-03T02:55:22;151639.0;;;11.4;44.26
33913;BME280;20200;52.084;5.224;2023-03-03T02:56:59;151531.0;;;10.97;45.16
33913;BME280;20200;52.084;5.224;2023-03-03T02:58:36;151530.0;;;10.96;45.29
33913;BME280;20200;52.084;5.224;2023-03-03T03:01:50;151463.0;;;10.7;45.83
33913;BME280;20200;52.084;5.224;2023-03-03T03:03:27;151343.0;;;10.23;46.29
33913;BME280;20200;52.084;5.224;2023-03-03T03:05:03;151553.0;;;11.05;45.14
33913;BME280;20200;52.084;5.224;2023-03-03T03:06:40;151620.0;;;11.32;44.51
33913;BME280;20200;52.084;5.224;2023-03-03T03:09:53;151571.0;;;11.13;44.74
33913;BME280;20200;52.084;5.224;2023-03-03T03:11:30;151484.0;;;10.78;45.11
33913;BME280;20200;52.084;5.224;2023-03-03T03:13:06;151410.0;;;10.49;45.85
33913;BME280;20200;52.084;5.224;2023-03-03T03:16:18;151470.0;;;10.72;45.44
33913;BME280;20200;52.084;5.224;2023-03-03T03:17:54;151361.0;;;10.29;46.06
33913;BME280;20200;52.084;5.224;2023-03-03T03:19:30;151419.0;;;10.52;45.74
33913;BME280;20200;52.084;5.224;2023-03-03T03:22:46;151279.0;;;9.97;46.97
33913;BME280;20200;52.084;5.224;2023-03-03T03:24:22;151148.0;;;9.44;47.92
33913;BME280;20200;52.084;5.224;2023-03-03T03:25:58;151164.0;;;9.5;48.4
33913;BME280;20200;52.084;5.224;2023-03-03T03:27:34;151365.0;;;10.31;46.58
33913;BME280;20200;52.084;5.224;2023-03-03T03:30:46;151348.0;;;10.24;46.29
33913;BME280;20200;52.084;5.224;2023-03-03T03:32:22;151264.0;;;9.9;46.93
33913;BME280;20200;52.084;5.224;2023-03-03T03:33:57;151311.0;;;10.09;46.81
33913;BME280;20200;52.084;5.224;2023-03-03T03:37:11;151399.0;;;10.44;46.42
33913;BME280;20200;52.084;5.224;2023-03-03T03:38:47;151420.0;;;10.52;45.94
33913;BME280;20200;52.084;5.224;2023-03-03T03:40:23;151515.0;;;10.9;45.51
33913;BME280;20200;52.084;5.224;2023-03-03T03:43:35;151547.0;;;11.03;45.08
33913;BME280;20200;52.084;5.224;2023-03-03T03:45:12;151564.0;;;11.1;44.9
33913;BME280;20200;52.084;5.224;2023-03-03T03:46:48;151500.0;;;10.85;45.2
33913;BME280;20200;52.084;5.224;2023-03-03T03:48:25;151450.0;;;10.65;45.62
33913;BME280;20200;52.084;5.224;2023-03-03T03:51:38;151469.0;;;10.72;45.63
33913;BME280;20200;52.084;5.224;2023-03-03T03:53:14;151443.0;;;10.62;45.6
33913;BME280;20200;52.084;5.224;2023-03-03T03:54:51;151481.0;;;10.77;45.64
33913;BME280;20200;52.084;5.224;2023-03-03T03:58:03;151470.0;;;10.73;45.66
33913;BME280;20200;52.084;5.224;2023-03-03T03:59:40;151553.0;;;11.05;45.2
33913;BME280;20200;52.084;5.224;2023-03-03T04:01:17;151563.0;;;11.09;45.12
33913;BME280;20200;52.084;5.224;2023-03-03T04:04:29;151365.0;;;10.31;46.38
33913;BME280;20200;52.084;5.224;2023-03-03T04:06:05;151514.0;;;10.9;45.47
33913;BME280;20200;52.084;5.224;2023-03-03T04:07:41;151498.0;;;10.84;45.63
33913;BME280;20200;52.084;5.224;2023-03-03T04:09:17;151535.0;;;10.99;45.45
33913;BME280;20200;52.084;5.224;2023-03-03T04:12:30;151559.0;;;11.08;45.01
33913;BME280;20200;52.084;5.224;2023-03-03T04:14:07;151328.0;;;10.16;47.1
33913;BME280;20200;52.084;5.224;2023-03-03T04:15:43;151326.0;;;10.15;46.84
33913;BME280;20200;52.084;5.224;2023-03-03T04:18:57;151414.0;;;10.5;46.02
33913;BME280;20200;52.084;5.224;2023-03-03T04:20:33;151498.0;;;10.84;45.88
33913;BME280;20200;52.084;5.224;2023-03-03T04:22:10;151492.0;;;10.81;45.99
33913;BME280;20200;52.084;5.224;2023-03-03T04:25:22;151547.0;;;11.03;45.53
33913;BME280;20200;52.084;5.224;2023-03-03T04:26:59;151595.0;;;11.22;45.38
33913;BME280;20200;52.084;5.224;2023-03-03T04:28:35;151632.0;;;11.37;44.68
33913;BME280;20200;52.084;5.224;2023-03-03T04:31:50;151445.0;;;10.62;46.23
33913;BME280;20200;52.084;5.224;2023-03-03T04:33:26;151551.0;;;11.05;45.89
33913;BME280;20200;52.084;5.224;2023-03-03T04:35:03;151684.0;;;11.58;44.61
33913;BME280;20200;52.084;5.224;2023-03-03T04:36:41;151640.0;;;11.4;44.78
33913;BME280;20200;52.084;5.224;2023-03-03T04:39:53;151683.0;;;11.57;44.66
33913;BME280;20200;52.084;5.224;2023-03-03T04:41:29;151678.0;;;11.56;44.57
33913;BME280;20200;52.084;5.224;2023-03-03T04:43:05;151647.0;;;11.43;44.9
33913;BME280;20200;52.084;5.224;2023-03-03T04:46:17;151625.0;;;11.34;45.4
33913;BME280;20200;52.084;5.224;2023-03-03T04:47:54;151627.0;;;11.35;45.3
33913;BME280;20200;52.084;5.224;2023-03-03T04:49:31;151657.0;;;11.47;45.12
33913;BME280;20200;52.084;5.224;2023-03-03T04:51:07;151713.0;;;11.69;44.58
33913;BME280;20200;52.084;5.224;2023-03-03T04:54:19;151571.0;;;11.13;45.4
33913;BME280;20200;52.084;5.224;2023-03-03T04:55:55;151735.0;;;11.78;44.42
33913;BME280;20200;52.084;5.224;2023-03-03T04:57:31;151793.0;;;12.01;43.9
33913;BME280;20200;52.084;5.224;2023-03-03T05:00:43;151602.0;;;11.25;45.21
33913;BME280;20200;52.084;5.224;2023-03-03T05:02:19;151600.0;;;11.24;45.28
33913;BME280;20200;52.084;5.224;2023-03-03T05:03:55;151697.0;;;11.63;44.81
33913;BME280;20200;52.084;5.224;2023-03-03T05:07:07;151700.0;;;11.64;44.79
33913;BME280;20200;52.084;5.224;2023-03-03T05:08:43;151712.0;;;11.69;44.35
33913;BME280;20200;52.084;5.224;2023-03-03T05:10:20;151683.0;;;11.57;44.99
33913;BME280;20200;52.084;5.224;2023-03-03T05:13:31;151639.0;;;11.4;45.54
33913;BME280;20200;52.084;5.224;2023-03-03T05:15:10;151715.0;;;11.7;44.81
33913;BME280;20200;52.084;5.224;2023-03-03T05:16:47;151725.0;;;11.74;44.76
33913;BME280;20200;52.084;5.224;2023-03-03T05:18:24;151709.0;;;11.68;44.98
33913;BME280;20200;52.084;5.224;2023-03-03T05:21:38;151703.0;;;11.65;45.02
33913;BME280;20200;52.084;5.224;2023-03-03T05:23:14;151740.0;;;11.8;44.82
33913;BME280;20200;52.084;5.224;2023-03-03T05:24:52;151741.0;;;11.8;44.72
33913;BME280;20200;52.084;5.224;2023-03-03T05:28:04;151816.0;;;12.1;44.19
33913;BME280;20200;52.084;5.224;2023-03-03T05:29:40;151782.0;;;11.97;44.38
33913;BME280;20200;52.084;5.224;2023-03-03T05:31:16;151778.0;;;11.95;44.6
33913;BME280;20200;52.084;5.224;2023-03-03T05:34:28;151794.0;;;12.02;44.71
33913;BME280;20200;52.084;5.224;2023-03-03T05:36:05;151821.0;;;12.13;44.42
33913;BME280;20200;52.084;5.224;2023-03-03T05:37:42;151829.0;;;12.16;44.42
33913;BME280;20200;52.084;5.224;2023-03-03T05:39:18;151828.0;;;12.15;44.34
33913;BME280;20200;52.084;5.224;2023-03-03T05:42:30;151893.0;;;12.41;43.93
33913;BME280;20200;52.084;5.224;2023-03-03T05:44:07;151889.0;;;12.39;43.94
33913;BME280;20200;52.084;5.224;2023-03-03T05:45:43;151781.0;;;11.96;44.6
33913;BME280;20200;52.084;5.224;2023-03-03T05:48:56;151777.0;;;11.95;44.83
33913;BME280;20200;52.084;5.224;2023-03-03T05:50:32;151824.0;;;12.14;44.43
33913;BME280;20200;52.084;5.224;2023-03-03T05:52:08;151816.0;;;12.1;44.91
33913;BME280;20200;52.084;5.224;2023-03-03T05:55:20;151824.0;;;12.14;44.76
33913;BME280;20200;52.084;5.224;2023-03-03T05:56:56;151765.0;;;11.9;45.5
33913;BME280;20200;52.084;5.224;2023-03-03T05:58:32;151616.0;;;11.31;46.59
33913;BME280;20200;52.084;5.224;2023-03-03T06:01:46;151633.0;;;11.37;46.54
33913;BME280;20200;52.084;5.224;2023-03-03T06:03:23;151563.0;;;11.1;47.06
33913;BME280;20200;52.084;5.224;2023-03-03T06:04:59;151782.0;;;11.97;45.33
33913;BME280;20200;52.084;5.224;2023-03-03T06:06:35;151825.0;;;12.14;45.01
33913;BME280;20200;52.084;5.224;2023-03-03T06:09:47;151731.0;;;11.77;46.0
33913;BME280;20200;52.084;5.224;2023-03-03T06:11:23;151628.0;;;11.35;46.55
33913;BME280;20200;52.084;5.224;2023-03-03T06:12:59;151713.0;;;11.69;46.29
33913;BME280;20200;52.084;5.224;2023-03-03T06:16:12;151625.0;;;11.34;46.73
33913;BME280;20200;52.084;5.224;2023-03-03T06:17:48;151685.0;;;11.58;46.15
33913;BME280;20200;52.084;5.224;2023-03-03T06:19:24;151757.0;;;11.87;45.71
33913;BME280;20200;52.084;5.224;2023-03-03T06:22:37;151891.0;;;12.4;44.75
33913;BME280;20200;52.084;5.224;2023-03-03T06:24:14;151671.0;;;11.52;46.69
33913;BME280;20200;52.084;5.224;2023-03-03T06:25:49;151763.0;;;11.89;46.09
33913;BME280;20200;52.084;5.224;2023-03-03T06:27:25;151781.0;;;11.96;45.58
33913;BME280;20200;52.084;5.224;2023-03-03T06:30:38;151797.0;;;12.03;45.72
33913;BME280;20200;52.084;5.224;2023-03-03T06:32:15;151876.0;;;12.34;44.92
33913;BME280;20200;52.084;5.224;2023-03-03T06:33:51;151753.0;;;11.85;45.89
33913;BME280;20200;52.084;5.224;2023-03-03T06:37:04;151866.0;;;12.3;45.15
33913;BME280;20200;52.084;5.224;2023-03-03T06:38:42;151892.0;;;12.41;45.03
33913;BME280;20200;52.084;5.224;2023-03-03T06:40:18;151871.0;;;12.32;45.18
33913;BME280;20200;52.084;5.224;2023-03-03T06:43:30;151850.0;;;12.24;45.24
33913;BME280;20200;52.084;5.224;2023-03-03T06:45:07;151832.0;;;12.17;45.37
33913;BME280;20200;52.084;5.224;2023-03-03T06:46:43;151913.0;;;12.49;44.75
33913;BME280;20200;52.084;5.224;2023-03-03T06:48:19;151894.0;;;12.42;45.12
33913;BME280;20200;52.084;5.224;2023-03-03T06:51:33;151893.0;;;12.41;44.87
33913;BME280;20200;52.084;5.224;2023-03-03T06:53:12;151878.0;;;12.35;45.46
33913;BME280;20200;52.084;5.224;2023-03-03T06:54:52;151948.0;;;12.63;44.66
33913;BME280;20200;52.084;5.224;2023-03-03T06:58:13;151803.0;;;12.05;45.51
33913;BME280;20200;52.084;5.224;2023-03-03T06:59:51;151755.0;;;11.86;46.14
33913;BME280;20200;52.084;5.224;2023-03-03T07:01:33;151803.0;;;12.05;45.56
33913;BME280;20200;52.084;5.224;2023-03-03T07:03:13;151782.0;;;11.97;45.97
33913;BME280;20200;52.084;5.224;2023-03-03T07:06:31;151902.0;;;12.45;45.33
33913;BME280;20200;52.084;5.224;2023-03-03T07:08:12;151946.0;;;12.62;45.07
33913;BME280;20200;52.084;5.224;2023-03-03T07:09:52;151912.0;;;12.49;45.26
33913;BME280;20200;52.084;5.224;2023-03-03T07:11:29;151872.0;;;12.33;45.48
33913;BME280;20200;52.084;5.224;2023-03-03T07:15:00;151886.0;;;12.38;45.36
33913;BME280;20200;52.084;5.224;2023-03-03T07:16:51;151845.0;;;12.22;46.03
33913;BME280;20200;52.084;5.224;2023-03-03T07:18:34;151911.0;;;12.48;45.25
33913;BME280;20200;52.084;5.224;2023-03-03T07:20:18;151959.0;;;12.67;45.0
33913;BME280;20200;52.084;5.224;2023-03-03T07:21:56;151928.0;;;12.55;44.92
33913;BME280;20200;52.084;5.224;2023-03-03T07:25:21;152027.0;;;12.94;44.63
33913;BME280;20200;52.084;5.224;2023-03-03T07:27:10;152000.0;;;12.84;44.74
33913;BME280;20200;52.084;5.224;2023-03-03T07:28:52;152038.0;;;12.99;44.55
33913;BME280;20200;52.084;5.224;2023-03-03T07:30:29;151996.0;;;12.82;45.05
33913;BME280;20200;52.084;5.224;2023-03-03T07:33:58;151928.0;;;12.55;44.94
33913;BME280;20200;52.084;5.224;2023-03-03T07:35:36;151966.0;;;12.7;45.5
33913;BME280;20200;52.084;5.224;2023-03-03T07:37:17;152032.0;;;12.96;44.98
33913;BME280;20200;52.084;5.224;2023-03-03T07:39:20;152080.0;;;13.16;44.32
33913;BME280;20200;52.084;5.224;2023-03-03T07:41:07;152048.0;;;13.03;44.88
33913;BME280;20200;52.084;5.224;2023-03-03T07:42:46;152035.0;;;12.97;44.89
33913;BME280;20200;52.084;5.224;2023-03-03T07:46:23;152071.0;;;13.12;44.55
33913;BME280;20200;52.084;5.224;2023-03-03T07:48:07;152075.0;;;13.14;44.61
33913;BME280;20200;52.084;5.224;2023-03-03T07:49:55;152061.0;;;13.08;44.55
33913;BME280;20200;52.084;5.224;2023-03-03T07:51:37;152015.0;;;12.9;44.95
33913;BME280;20200;52.084;5.224;2023-03-03T07:53:22;152051.0;;;13.04;44.63
33913;BME280;20200;52.084;5.224;2023-03-03T07:57:14;152154.0;;;13.45;44.19
33913;BME280;20200;52.084;5.224;2023-03-03T07:58:57;152121.0;;;13.32;44.41
33913;BME280;20200;52.084;5.224;2023-03-03T08:01:37;152128.0;;;13.35;44.26
33913;BME280;20200;52.084;5.224;2023-03-03T08:03:16;152065.0;;;13.09;44.8
33913;BME280;20200;52.084;5.224;2023-03-03T08:04:53;152069.0;;;13.11;44.74
33913;BME280;20200;52.084;5.224;2023-03-03T08:06:40;152100.0;;;13.24;44.47
33913;BME280;20200;52.084;5.224;2023-03-03T08:08:27;152021.0;;;12.92;45.06
33913;BME280;20200;52.084;5.224;2023-03-03T08:10:28;152049.0;;;13.03;45.12
33913;BME280;20200;52.084;5.224;2023-03-03T08:12:22;152015.0;;;12.9;45.26
33913;BME280;20200;52.084;5.224;2023-03-03T08:14:14;152074.0;;;13.13;45.02
33913;BME280;20200;52.084;5.224;2023-03-03T08:17:37;152136.0;;;13.38;44.39
33913;BME280;20200;52.084;5.224;2023-03-03T08:19:16;152173.0;;;13.52;44.19
33913;BME280;20200;52.084;5.224;2023-03-03T08:20:55;152118.0;;;13.31;44.62
33913;BME280;20200;52.084;5.224;2023-03-03T08:22:34;152237.0;;;13.78;43.86
33913;BME280;20200;52.084;5.224;2023-03-03T08:25:47;152197.0;;;13.62;44.04
33913;BME280;20200;52.084;5.224;2023-03-03T08:27:24;152233.0;;;13.76;43.85
33913;BME280;20200;52.084;5.224;2023-03-03T08:29:00;152164.0;;;13.49;44.31
33913;BME280;20200;52.084;5.224;2023-03-03T08:32:13;152256.0;;;13.86;43.78
33913;BME280;20200;52.084;5.224;2023-03-03T08:33:50;152097.0;;;13.22;44.56
33913;BME280;20200;52.084;5.224;2023-03-03T08:35:27;152107.0;;;13.26;44.71
33913;BME280;20200;52.084;5.224;2023-03-03T08:38:39;152230.0;;;13.75;44.08
33913;BME280;20200;52.084;5.224;2023-03-03T08:40:16;152179.0;;;13.55;44.31
33913;BME280;20200;52.084;5.224;2023-03-03T08:41:52;152251.0;;;13.84;44.01
33913;BME280;20200;52.084;5.224;2023-03-03T08:43:29;152249.0;;;13.83;44.07
33913;BME280;20200;52.084;5.224;2023-03-03T08:46:42;152117.0;;;13.3;45.09
33913;BME280;20200;52.084;5.224;2023-03-03T08:48:19;152155.0;;;13.46;44.68
33913;BME280;20200;52.084;5.224;2023-03-03T08:49:56;152183.0;;;13.57;44.66
33913;BME280;20200;52.084;5.224;2023-03-03T08:53:09;152093.0;;;13.21;45.24
33913;BME280;20200;52.084;5.224;2023-03-03T08:54:45;152207.0;;;13.66;44.44
33913;BME280;20200;52.084;5.224;2023-03-03T08:56:22;152145.0;;;13.41;44.97
33913;BME280;20200;52.084;5.224;2023-03-03T08:59:34;152200.0;;;13.63;44.13
33913;BME280;20200;52.084;5.224;2023-03-03T09:01:10;152309.0;;;14.07;43.84
33913;BME280;20200;52.084;5.224;2023-03-03T09:02:46;152281.0;;;13.96;44.12
33913;BME280;20200;52.084;5.224;2023-03-03T09:04:23;152384.0;;;14.36;43.25
33913;BME280;20200;52.084;5.224;2023-03-03T09:07:35;152375.0;;;14.33;43.06
33913;BME280;20200;52.084;5.224;2023-03-03T09:09:13;152281.0;;;13.96;43.61
33913;BME280;20200;52.084;5.224;2023-03-03T09:10:49;152318.0;;;14.1;43.57
33913;BME280;20200;52.084;5.224;2023-03-03T09:14:10;152260.0;;;13.87;43.93
33913;BME280;20200;52.084;5.224;2023-03-03T09:15:47;152268.0;;;13.9;43.68
33913;BME280;20200;52.084;5.224;2023-03-03T09:17:27;152386.0;;;14.37;42.81
33913;BME280;20200;52.084;5.224;2023-03-03T09:19:22;152435.0;;;14.57;42.36
33913;BME280;20200;52.084;5.224;2023-03-03T09:22:36;152432.0;;;14.56;42.5
33913;BME280;20200;52.084;5.224;2023-03-03T09:24:19;152375.0;;;14.33;42.8
33913;BME280;20200;52.084;5.224;2023-03-03T09:26:17;152278.0;;;13.94;43.07
33913;BME280;20200;52.084;5.224;2023-03-03T09:28:18;152317.0;;;14.1;42.99
33913;BME280;20200;52.084;5.224;2023-03-03T09:30:00;152350.0;;;14.23;42.86
33913;BME280;20200;52.084;5.224;2023-03-03T09:31:39;152398.0;;;14.42;42.28
33913;BME280;20200;52.084;5.224;2023-03-03T09:35:24;152324.0;;;14.13;42.39
33913;BME280;20200;52.084;5.224;2023-03-03T09:37:19;152244.0;;;13.81;43.29
33913;BME280;20200;52.084;5.224;2023-03-03T09:38:57;152286.0;;;13.98;43.16
33913;BME280;20200;52.084;5.224;2023-03-03T09:40:46;152260.0;;;13.87;43.26
33913;BME280;20200;52.084;5.224;2023-03-03T09:43:02;152182.0;;;13.56;43.82
33913;BME280;20200;52.084;5.224;2023-03-03T09:45:06;152193.0;;;13.61;43.55
33913;BME280;20200;52.084;5.224;2023-03-03T09:47:54;152115.0;;;13.29;43.97
33913;BME280;20200;52.084;5.224;2023-03-03T09:49:43;152118.0;;;13.31;44.44
33913;BME280;20200;52.084;5.224;2023-03-03T09:51:48;152140.0;;;13.39;43.98
33913;BME280;20200;52.084;5.224;2023-03-03T09:54:01;152311.0;;;14.08;43.18
33913;BME280;20200;52.084;5.224;2023-03-03T09:55:58;152377.0;;;14.34;42.33
33913;BME280;20200;52.084;5.224;2023-03-03T09:57:53;152271.0;;;13.92;43.0
33913;BME280;20200;52.084;5.224;2023-03-03T09:59:44;152455.0;;;14.65;42.24
33913;BME280;20200;52.084;5.224;2023-03-03T10:01:35;152370.0;;;14.31;42.43
33913;BME280;20200;52.084;5.224;2023-03-03T10:04:22;152428.0;;;14.54;41.98
33913;BME280;20200;52.084;5.224;2023-03-03T10:06:52;152376.0;;;14.33;42.09
33913;BME280;20200;52.084;5.224;2023-03-03T10:08:43;152420.0;;;14.51;41.92
33913;BME280;20200;52.084;5.224;2023-03-03T10:10:47;152426.0;;;14.53;42.21
33913;BME280;20200;52.084;5.224;2023-03-03T10:13:01;152626.0;;;15.33;40.67
33913;BME280;20200;52.084;5.224;2023-03-03T10:14:57;152516.0;;;14.89;41.5
33913;BME280;20200;52.084;5.224;2023-03-03T10:17:19;152562.0;;;15.07;41.31
33913;BME280;20200;52.084;5.224;2023-03-03T10:19:02;152613.0;;;15.27;40.76
33913;BME280;20200;52.084;5.224;2023-03-03T10:20:52;152715.0;;;15.68;40.47
33913;BME280;20200;52.084;5.224;2023-03-03T10:22:45;152675.0;;;15.52;40.24
33913;BME280;20200;52.084;5.224;2023-03-03T10:24:27;152712.0;;;15.67;40.49
33913;BME280;20200;52.084;5.224;2023-03-03T10:26:16;152775.0;;;15.92;40.24
33913;BME280;20200;52.084;5.224;2023-03-03T10:29:59;152728.0;;;15.73;40.24
33913;BME280;20200;52.084;5.224;2023-03-03T10:31:50;152880.0;;;16.34;39.14
33913;BME280;20200;52.084;5.224;2023-03-03T10:33:40;152711.0;;;15.66;39.97
33913;BME280;20200;52.084;5.224;2023-03-03T10:35:32;152768.0;;;15.89;39.68
33913;BME280;20200;52.084;5.224;2023-03-03T10:37:16;152793.0;;;15.99;39.06
33913;BME280;20200;52.084;5.224;2023-03-03T10:39:16;152883.0;;;16.36;38.71
33913;BME280;20200;52.084;5.224;2023-03-03T10:41:06;152830.0;;;16.14;38.85
33913;BME280;20200;52.084;5.224;2023-03-03T10:42:58;152993.0;;;16.79;37.97
33913;BME280;20200;52.084;5.224;2023-03-03T10:44:51;153000.0;;;16.81;37.76
33913;BME280;20200;52.084;5.224;2023-03-03T10:48:44;152828.0;;;16.13;38.69
33913;BME280;20200;52.084;5.224;2023-03-03T10:50:33;152883.0;;;16.36;38.69
33913;BME280;20200;52.084;5.224;2023-03-03T10:52:24;153109.0;;;17.25;37.21
33913;BME280;20200;52.084;5.224;2023-03-03T10:54:17;153069.0;;;17.09;36.93
33913;BME280;20200;52.084;5.224;2023-03-03T10:56:28;153121.0;;;17.29;36.6
33913;BME280;20200;52.084;5.224;2023-03-03T10:58:20;153221.0;;;17.7;35.96
33913;BME280;20200;52.084;5.224;2023-03-03T11:00:20;153256.0;;;17.84;35.79
33913;BME280;20200;52.084;5.224;2023-03-03T11:02:02;152886.0;;;16.36;37.08
33913;BME280;20200;52.084;5.224;2023-03-03T11:04:05;153052.0;;;17.02;36.17
33913;BME280;20200;52.084;5.224;2023-03-03T11:07:02;153006.0;;;16.84;35.81